sensor_id;sensor_type;location;lat;lon;timestamp;temperature;humidity
53264;DHT22;39153;52.680;6.172;2022-07-06T00:01:18;15.10;99.90
53264;DHT22;39153;52.680;6.172;2022-07-06T00:03:44;15.10;99.90
53264;DHT22;39153;52.680;6.172;2022-07-06T00:06:10;15.10;99.90
53264;DHT22;39153;52.680;6.172;2022-07-06T00:08:36;15.20;99.90
53264;DHT22;39153;52.680;6.172;2022-07-06T00:11:02;15.20;99.90
53264;DHT22;39153;52.680;6.172;2022-07-06T00:13:28;15.30;99.90
53264;DHT22;39153;52.680;6.172;2022-07-06T00:15:54;15.30;99.90
53264;DHT22;39153;52.680;6.172;2022-07-06T00:18:20;15.20;99.90
53264;DHT22;39153;52.680;6.172;2022-07-06T00:20:46;15.30;99.90
53264;DHT22;39153;52.680;6.172;2022-07-06T00:23:11;15.30;99.90
53264;DHT22;39153;52.680;6.172;2022-07-06T00:25:37;15.20;99.90
53264;DHT22;39153;52.680;6.172;2022-07-06T00:28:03;15.10;99.90
53264;DHT22;39153;52.680;6.172;2022-07-06T00:30:29;15.20;99.90
53264;DHT22;39153;52.680;6.172;2022-07-06T00:32:55;15.10;99.90
53264;DHT22;39153;52.680;6.172;2022-07-06T00:35:21;15.10;99.90
53264;DHT22;39153;52.680;6.172;2022-07-06T00:37:47;15.10;99.90
53264;DHT22;39153;52.680;6.172;2022-07-06T00:40:12;15.00;99.90
53264;DHT22;39153;52.680;6.172;2022-07-06T00:42:43;15.00;99.90
53264;DHT22;39153;52.680;6.172;2022-07-06T00:45:09;14.90;99.90
53264;DHT22;39153;52.680;6.172;2022-07-06T00:47:35;15.10;99.90
53264;DHT22;39153;52.680;6.172;2022-07-06T00:50:02;15.10;99.90
53264;DHT22;39153;52.680;6.172;2022-07-06T00:52:41;15.10;99.90
53264;DHT22;39153;52.680;6.172;2022-07-06T00:55:08;15.10;99.90
53264;DHT22;39153;52.680;6.172;2022-07-06T00:57:35;15.10;99.90
53264;DHT22;39153;52.680;6.172;2022-07-06T01:00:03;15.10;99.90
53264;DHT22;39153;52.680;6.172;2022-07-06T01:02:31;15.10;99.90
53264;DHT22;39153;52.680;6.172;2022-07-06T01:04:57;15.10;99.90
53264;DHT22;39153;52.680;6.172;2022-07-06T01:07:23;15.20;99.90
53264;DHT22;39153;52.680;6.172;2022-07-06T01:09:49;15.10;99.90
53264;DHT22;39153;52.680;6.172;2022-07-06T01:12:15;15.00;99.90
53264;DHT22;39153;52.680;6.172;2022-07-06T01:14:41;14.90;99.90
53264;DHT22;39153;52.680;6.172;2022-07-06T01:17:07;14.90;99.90
53264;DHT22;39153;52.680;6.172;2022-07-06T01:19:33;14.90;99.90
53264;DHT22;39153;52.680;6.172;2022-07-06T01:21:59;14.90;99.90
53264;DHT22;39153;52.680;6.172;2022-07-06T01:24:25;14.80;99.90
53264;DHT22;39153;52.680;6.172;2022-07-06T01:26:51;14.90;99.90
53264;DHT22;39153;52.680;6.172;2022-07-06T01:29:17;14.90;99.90
53264;DHT22;39153;52.680;6.172;2022-07-06T01:31:48;14.90;99.90
53264;DHT22;39153;52.680;6.172;2022-07-06T01:34:14;14.90;99.90
53264;DHT22;39153;52.680;6.172;2022-07-06T01:36:40;14.80;99.90
53264;DHT22;39153;52.680;6.172;2022-07-06T01:39:08;15.00;99.90
53264;DHT22;39153;52.680;6.172;2022-07-06T01:41:34;15.00;99.90
53264;DHT22;39153;52.680;6.172;2022-07-06T01:44:01;15.00;99.90
53264;DHT22;39153;52.680;6.172;2022-07-06T01:46:26;15.00;99.90
53264;DHT22;39153;52.680;6.172;2022-07-06T01:48:52;15.10;99.90
53264;DHT22;39153;52.680;6.172;2022-07-06T01:51:18;15.10;99.90
53264;DHT22;39153;52.680;6.172;2022-07-06T01:53:44;15.20;99.90
53264;DHT22;39153;52.680;6.172;2022-07-06T01:56:10;15.10;99.90
53264;DHT22;39153;52.680;6.172;2022-07-06T01:58:36;15.20;99.90
53264;DHT22;39153;52.680;6.172;2022-07-06T02:01:14;15.20;99.90
53264;DHT22;39153;52.680;6.172;2022-07-06T02:03:40;15.20;99.90
53264;DHT22;39153;52.680;6.172;2022-07-06T02:06:06;15.00;99.90
53264;DHT22;39153;52.680;6.172;2022-07-06T02:08:33;15.00;99.90
53264;DHT22;39153;52.680;6.172;2022-07-06T02:10:59;15.00;99.90
53264;DHT22;39153;52.680;6.172;2022-07-06T02:13:25;15.10;99.90
53264;DHT22;39153;52.680;6.172;2022-07-06T02:15:50;15.10;99.90
53264;DHT22;39153;52.680;6.172;2022-07-06T02:18:16;15.20;99.90
53264;DHT22;39153;52.680;6.172;2022-07-06T02:20:42;15.20;99.90
53264;DHT22;39153;52.680;6.172;2022-07-06T02:23:07;15.20;99.90
53264;DHT22;39153;52.680;6.172;2022-07-06T02:25:33;15.20;99.90
53264;DHT22;39153;52.680;6.172;2022-07-06T02:27:59;15.10;99.90
53264;DHT22;39153;52.680;6.172;2022-07-06T02:30:25;15.10;99.90
53264;DHT22;39153;52.680;6.172;2022-07-06T02:32:50;15.00;99.90
53264;DHT22;39153;52.680;6.172;2022-07-06T02:35:16;15.10;99.90
53264;DHT22;39153;52.680;6.172;2022-07-06T02:37:42;15.20;99.90
53264;DHT22;39153;52.680;6.172;2022-07-06T02:40:08;15.10;99.90
53264;DHT22;39153;52.680;6.172;2022-07-06T02:42:34;15.20;99.90
53264;DHT22;39153;52.680;6.172;2022-07-06T02:45:00;15.10;99.90
53264;DHT22;39153;52.680;6.172;2022-07-06T02:47:25;15.20;99.90
53264;DHT22;39153;52.680;6.172;2022-07-06T02:49:54;15.30;99.90
53264;DHT22;39153;52.680;6.172;2022-07-06T02:52:20;15.20;99.90
53264;DHT22;39153;52.680;6.172;2022-07-06T02:54:45;15.20;99.90
53264;DHT22;39153;52.680;6.172;2022-07-06T02:57:11;15.30;99.90
53264;DHT22;39153;52.680;6.172;2022-07-06T02:59:37;15.20;99.90
53264;DHT22;39153;52.680;6.172;2022-07-06T03:02:06;15.20;99.90
53264;DHT22;39153;52.680;6.172;2022-07-06T03:04:32;15.20;99.90
53264;DHT22;39153;52.680;6.172;2022-07-06T03:06:58;15.10;99.90
53264;DHT22;39153;52.680;6.172;2022-07-06T03:09:24;15.00;99.90
53264;DHT22;39153;52.680;6.172;2022-07-06T03:11:49;15.00;99.90
53264;DHT22;39153;52.680;6.172;2022-07-06T03:14:15;15.00;99.90
53264;DHT22;39153;52.680;6.172;2022-07-06T03:16:41;14.90;99.90
53264;DHT22;39153;52.680;6.172;2022-07-06T03:19:06;15.00;99.90
53264;DHT22;39153;52.680;6.172;2022-07-06T03:21:32;15.00;99.90
53264;DHT22;39153;52.680;6.172;2022-07-06T03:23:58;15.00;99.90
53264;DHT22;39153;52.680;6.172;2022-07-06T03:26:24;15.00;99.90
53264;DHT22;39153;52.680;6.172;2022-07-06T03:28:49;15.10;99.90
53264;DHT22;39153;52.680;6.172;2022-07-06T03:31:15;15.00;99.90
53264;DHT22;39153;52.680;6.172;2022-07-06T03:33:41;15.00;99.90
53264;DHT22;39153;52.680;6.172;2022-07-06T03:36:07;15.10;99.90
53264;DHT22;39153;52.680;6.172;2022-07-06T03:38:33;15.00;99.90
53264;DHT22;39153;52.680;6.172;2022-07-06T03:40:59;15.00;99.90
53264;DHT22;39153;52.680;6.172;2022-07-06T03:43:25;15.00;99.90
53264;DHT22;39153;52.680;6.172;2022-07-06T03:45:50;15.00;99.90
53264;DHT22;39153;52.680;6.172;2022-07-06T03:48:16;15.00;99.90
53264;DHT22;39153;52.680;6.172;2022-07-06T03:50:42;14.90;99.90
53264;DHT22;39153;52.680;6.172;2022-07-06T03:53:08;14.80;99.90
53264;DHT22;39153;52.680;6.172;2022-07-06T03:55:33;14.80;99.90
53264;DHT22;39153;52.680;6.172;2022-07-06T03:57:59;14.80;99.90
53264;DHT22;39153;52.680;6.172;2022-07-06T04:00:24;14.70;99.90
53264;DHT22;39153;52.680;6.172;2022-07-06T04:02:50;14.70;99.90
53264;DHT22;39153;52.680;6.172;2022-07-06T04:05:16;14.60;99.90
53264;DHT22;39153;52.680;6.172;2022-07-06T04:07:47;14.60;99.90
53264;DHT22;39153;52.680;6.172;2022-07-06T04:10:14;14.60;99.90
53264;DHT22;39153;52.680;6.172;2022-07-06T04:12:44;14.60;99.90
53264;DHT22;39153;52.680;6.172;2022-07-06T04:15:10;14.50;99.90
53264;DHT22;39153;52.680;6.172;2022-07-06T04:17:36;14.50;99.90
53264;DHT22;39153;52.680;6.172;2022-07-06T04:20:17;14.40;99.90
53264;DHT22;39153;52.680;6.172;2022-07-06T04:22:43;14.40;99.90
53264;DHT22;39153;52.680;6.172;2022-07-06T04:25:09;14.40;99.90
53264;DHT22;39153;52.680;6.172;2022-07-06T04:27:34;14.40;99.90
53264;DHT22;39153;52.680;6.172;2022-07-06T04:30:00;14.40;99.90
53264;DHT22;39153;52.680;6.172;2022-07-06T04:32:26;14.50;99.90
53264;DHT22;39153;52.680;6.172;2022-07-06T04:34:52;14.50;99.90
53264;DHT22;39153;52.680;6.172;2022-07-06T04:37:17;14.60;99.90
53264;DHT22;39153;52.680;6.172;2022-07-06T04:39:43;14.60;99.90
53264;DHT22;39153;52.680;6.172;2022-07-06T04:42:09;14.70;99.90
53264;DHT22;39153;52.680;6.172;2022-07-06T04:44:34;14.80;99.90
53264;DHT22;39153;52.680;6.172;2022-07-06T04:47:00;14.90;99.90
53264;DHT22;39153;52.680;6.172;2022-07-06T04:49:26;14.80;99.90
53264;DHT22;39153;52.680;6.172;2022-07-06T04:51:51;14.80;99.90
53264;DHT22;39153;52.680;6.172;2022-07-06T04:54:17;14.80;99.90
53264;DHT22;39153;52.680;6.172;2022-07-06T04:56:43;14.80;99.90
53264;DHT22;39153;52.680;6.172;2022-07-06T04:59:08;14.90;99.90
53264;DHT22;39153;52.680;6.172;2022-07-06T05:01:34;14.90;99.90
53264;DHT22;39153;52.680;6.172;2022-07-06T05:04:00;14.80;99.90
53264;DHT22;39153;52.680;6.172;2022-07-06T05:06:25;14.80;99.90
53264;DHT22;39153;52.680;6.172;2022-07-06T05:08:51;14.80;99.90
53264;DHT22;39153;52.680;6.172;2022-07-06T05:11:17;14.80;99.90
53264;DHT22;39153;52.680;6.172;2022-07-06T05:13:42;14.80;99.90
53264;DHT22;39153;52.680;6.172;2022-07-06T05:16:08;14.70;99.90
53264;DHT22;39153;52.680;6.172;2022-07-06T05:18:34;14.80;99.90
53264;DHT22;39153;52.680;6.172;2022-07-06T05:21:00;14.80;99.90
53264;DHT22;39153;52.680;6.172;2022-07-06T05:23:26;14.80;99.90
53264;DHT22;39153;52.680;6.172;2022-07-06T05:25:52;14.90;99.90
53264;DHT22;39153;52.680;6.172;2022-07-06T05:28:17;15.00;99.90
53264;DHT22;39153;52.680;6.172;2022-07-06T05:30:43;15.00;99.90
53264;DHT22;39153;52.680;6.172;2022-07-06T05:33:09;15.00;99.90
53264;DHT22;39153;52.680;6.172;2022-07-06T05:35:34;15.10;99.90
53264;DHT22;39153;52.680;6.172;2022-07-06T05:38:00;15.10;99.90
53264;DHT22;39153;52.680;6.172;2022-07-06T05:40:26;15.30;99.90
53264;DHT22;39153;52.680;6.172;2022-07-06T05:42:51;15.30;99.90
53264;DHT22;39153;52.680;6.172;2022-07-06T05:45:17;15.40;99.90
53264;DHT22;39153;52.680;6.172;2022-07-06T05:47:43;15.50;99.90
53264;DHT22;39153;52.680;6.172;2022-07-06T05:50:27;15.50;99.90
53264;DHT22;39153;52.680;6.172;2022-07-06T05:52:57;15.60;99.90
53264;DHT22;39153;52.680;6.172;2022-07-06T05:55:23;15.70;99.90
53264;DHT22;39153;52.680;6.172;2022-07-06T05:57:49;15.80;99.90
53264;DHT22;39153;52.680;6.172;2022-07-06T06:00:16;15.80;99.90
53264;DHT22;39153;52.680;6.172;2022-07-06T06:02:42;15.90;99.90
53264;DHT22;39153;52.680;6.172;2022-07-06T06:05:10;15.80;99.90
53264;DHT22;39153;52.680;6.172;2022-07-06T06:07:37;16.00;99.90
53264;DHT22;39153;52.680;6.172;2022-07-06T06:10:05;16.10;99.90
53264;DHT22;39153;52.680;6.172;2022-07-06T06:12:31;16.10;99.90
53264;DHT22;39153;52.680;6.172;2022-07-06T06:14:56;16.10;99.90
53264;DHT22;39153;52.680;6.172;2022-07-06T06:17:22;15.90;99.90
53264;DHT22;39153;52.680;6.172;2022-07-06T06:19:48;16.10;99.90
53264;DHT22;39153;52.680;6.172;2022-07-06T06:22:14;16.00;99.90
53264;DHT22;39153;52.680;6.172;2022-07-06T06:24:40;16.20;99.90
53264;DHT22;39153;52.680;6.172;2022-07-06T06:27:06;16.20;99.90
53264;DHT22;39153;52.680;6.172;2022-07-06T06:29:32;16.20;99.90
53264;DHT22;39153;52.680;6.172;2022-07-06T06:31:57;16.20;99.90
53264;DHT22;39153;52.680;6.172;2022-07-06T06:34:23;16.20;99.90
53264;DHT22;39153;52.680;6.172;2022-07-06T06:36:49;16.20;99.90
53264;DHT22;39153;52.680;6.172;2022-07-06T06:39:15;16.20;99.90
53264;DHT22;39153;52.680;6.172;2022-07-06T06:41:41;16.30;99.90
53264;DHT22;39153;52.680;6.172;2022-07-06T06:44:06;16.20;99.90
53264;DHT22;39153;52.680;6.172;2022-07-06T06:46:32;16.20;99.90
53264;DHT22;39153;52.680;6.172;2022-07-06T06:48:58;16.00;99.90
53264;DHT22;39153;52.680;6.172;2022-07-06T06:51:23;16.00;99.90
53264;DHT22;39153;52.680;6.172;2022-07-06T06:53:49;16.00;99.90
53264;DHT22;39153;52.680;6.172;2022-07-06T06:56:15;16.00;99.90
53264;DHT22;39153;52.680;6.172;2022-07-06T06:58:40;16.10;99.90
53264;DHT22;39153;52.680;6.172;2022-07-06T07:01:06;16.20;99.90
53264;DHT22;39153;52.680;6.172;2022-07-06T07:03:32;16.20;99.90
53264;DHT22;39153;52.680;6.172;2022-07-06T07:05:58;16.30;99.90
53264;DHT22;39153;52.680;6.172;2022-07-06T07:08:24;16.30;99.90
53264;DHT22;39153;52.680;6.172;2022-07-06T07:10:49;16.20;99.90
53264;DHT22;39153;52.680;6.172;2022-07-06T07:13:15;16.40;99.90
53264;DHT22;39153;52.680;6.172;2022-07-06T07:15:41;16.60;99.90
53264;DHT22;39153;52.680;6.172;2022-07-06T07:18:06;16.60;99.90
53264;DHT22;39153;52.680;6.172;2022-07-06T07:20:32;16.70;99.90
53264;DHT22;39153;52.680;6.172;2022-07-06T07:22:59;16.60;99.90
53264;DHT22;39153;52.680;6.172;2022-07-06T07:25:26;16.60;99.90
53264;DHT22;39153;52.680;6.172;2022-07-06T07:27:52;16.90;99.90
53264;DHT22;39153;52.680;6.172;2022-07-06T07:30:18;16.90;99.90
53264;DHT22;39153;52.680;6.172;2022-07-06T07:32:44;17.00;99.90
53264;DHT22;39153;52.680;6.172;2022-07-06T07:35:10;16.90;99.90
53264;DHT22;39153;52.680;6.172;2022-07-06T07:37:35;17.10;99.90
53264;DHT22;39153;52.680;6.172;2022-07-06T07:40:02;17.10;99.90
53264;DHT22;39153;52.680;6.172;2022-07-06T07:42:28;17.20;99.90
53264;DHT22;39153;52.680;6.172;2022-07-06T07:44:53;17.20;99.90
53264;DHT22;39153;52.680;6.172;2022-07-06T07:47:19;17.20;99.90
53264;DHT22;39153;52.680;6.172;2022-07-06T07:49:45;17.20;99.90
53264;DHT22;39153;52.680;6.172;2022-07-06T07:52:11;17.10;99.90
53264;DHT22;39153;52.680;6.172;2022-07-06T07:54:36;17.00;99.90
53264;DHT22;39153;52.680;6.172;2022-07-06T07:57:02;17.20;99.90
53264;DHT22;39153;52.680;6.172;2022-07-06T07:59:28;17.50;99.90
53264;DHT22;39153;52.680;6.172;2022-07-06T08:01:54;17.30;99.90
53264;DHT22;39153;52.680;6.172;2022-07-06T08:04:20;17.00;99.90
53264;DHT22;39153;52.680;6.172;2022-07-06T08:06:46;16.80;99.90
53264;DHT22;39153;52.680;6.172;2022-07-06T08:09:12;16.90;99.90
53264;DHT22;39153;52.680;6.172;2022-07-06T08:11:38;17.00;99.90
53264;DHT22;39153;52.680;6.172;2022-07-06T08:14:04;17.10;99.90
53264;DHT22;39153;52.680;6.172;2022-07-06T08:16:30;17.00;99.90
53264;DHT22;39153;52.680;6.172;2022-07-06T08:18:57;17.00;99.90
53264;DHT22;39153;52.680;6.172;2022-07-06T08:21:23;17.00;99.90
53264;DHT22;39153;52.680;6.172;2022-07-06T08:23:49;17.20;99.90
53264;DHT22;39153;52.680;6.172;2022-07-06T08:26:15;17.30;99.90
53264;DHT22;39153;52.680;6.172;2022-07-06T08:28:40;17.60;99.90
53264;DHT22;39153;52.680;6.172;2022-07-06T08:31:06;17.70;99.90
53264;DHT22;39153;52.680;6.172;2022-07-06T08:33:32;17.60;99.90
53264;DHT22;39153;52.680;6.172;2022-07-06T08:35:57;17.60;99.90
53264;DHT22;39153;52.680;6.172;2022-07-06T08:38:24;17.70;99.90
53264;DHT22;39153;52.680;6.172;2022-07-06T08:40:50;17.60;99.90
53264;DHT22;39153;52.680;6.172;2022-07-06T08:43:17;17.60;99.90
53264;DHT22;39153;52.680;6.172;2022-07-06T08:45:43;17.60;99.90
53264;DHT22;39153;52.680;6.172;2022-07-06T08:48:11;17.90;99.90
53264;DHT22;39153;52.680;6.172;2022-07-06T08:50:37;18.00;99.90
53264;DHT22;39153;52.680;6.172;2022-07-06T08:53:04;17.90;99.90
53264;DHT22;39153;52.680;6.172;2022-07-06T08:55:30;18.00;99.90
53264;DHT22;39153;52.680;6.172;2022-07-06T08:57:57;18.40;99.90
53264;DHT22;39153;52.680;6.172;2022-07-06T09:00:24;18.50;99.90
53264;DHT22;39153;52.680;6.172;2022-07-06T09:02:53;18.60;99.90
53264;DHT22;39153;52.680;6.172;2022-07-06T09:05:23;18.70;99.90
53264;DHT22;39153;52.680;6.172;2022-07-06T09:07:50;18.40;99.90
53264;DHT22;39153;52.680;6.172;2022-07-06T09:10:20;18.40;99.90
53264;DHT22;39153;52.680;6.172;2022-07-06T09:12:47;18.40;99.90
53264;DHT22;39153;52.680;6.172;2022-07-06T09:15:14;18.40;99.90
53264;DHT22;39153;52.680;6.172;2022-07-06T09:17:41;18.50;99.90
53264;DHT22;39153;52.680;6.172;2022-07-06T09:20:11;18.60;99.90
53264;DHT22;39153;52.680;6.172;2022-07-06T09:22:39;18.90;99.90
53264;DHT22;39153;52.680;6.172;2022-07-06T09:27:37;19.70;99.90
53264;DHT22;39153;52.680;6.172;2022-07-06T09:30:04;20.00;99.90
53264;DHT22;39153;52.680;6.172;2022-07-06T09:32:30;20.20;99.90
53264;DHT22;39153;52.680;6.172;2022-07-06T09:34:56;20.60;99.90
53264;DHT22;39153;52.680;6.172;2022-07-06T09:37:22;20.50;99.90
53264;DHT22;39153;52.680;6.172;2022-07-06T09:39:51;19.60;99.90
53264;DHT22;39153;52.680;6.172;2022-07-06T09:42:24;19.30;99.90
53264;DHT22;39153;52.680;6.172;2022-07-06T09:44:50;18.80;99.90
53264;DHT22;39153;52.680;6.172;2022-07-06T09:47:16;18.70;99.90
53264;DHT22;39153;52.680;6.172;2022-07-06T09:49:44;18.60;99.90
53264;DHT22;39153;52.680;6.172;2022-07-06T09:52:11;18.50;99.90
53264;DHT22;39153;52.680;6.172;2022-07-06T09:54:38;18.70;99.90
53264;DHT22;39153;52.680;6.172;2022-07-06T09:57:04;19.20;99.90
53264;DHT22;39153;52.680;6.172;2022-07-06T09:59:32;19.30;99.90
53264;DHT22;39153;52.680;6.172;2022-07-06T10:02:00;19.40;99.90
53264;DHT22;39153;52.680;6.172;2022-07-06T10:04:27;19.30;99.90
53264;DHT22;39153;52.680;6.172;2022-07-06T10:06:54;19.20;99.90
53264;DHT22;39153;52.680;6.172;2022-07-06T10:09:22;19.20;99.90
53264;DHT22;39153;52.680;6.172;2022-07-06T10:12:01;19.20;99.90
53264;DHT22;39153;52.680;6.172;2022-07-06T10:14:29;19.40;99.90
53264;DHT22;39153;52.680;6.172;2022-07-06T10:17:00;19.60;99.90
53264;DHT22;39153;52.680;6.172;2022-07-06T10:19:28;20.10;99.90
53264;DHT22;39153;52.680;6.172;2022-07-06T10:21:56;20.00;99.90
53264;DHT22;39153;52.680;6.172;2022-07-06T10:24:24;20.10;99.90
53264;DHT22;39153;52.680;6.172;2022-07-06T10:26:50;19.90;99.90
53264;DHT22;39153;52.680;6.172;2022-07-06T10:29:15;20.00;99.90
53264;DHT22;39153;52.680;6.172;2022-07-06T10:31:46;20.10;99.90
53264;DHT22;39153;52.680;6.172;2022-07-06T10:34:15;20.20;99.90
53264;DHT22;39153;52.680;6.172;2022-07-06T10:36:43;20.10;99.90
53264;DHT22;39153;52.680;6.172;2022-07-06T10:39:10;20.30;99.90
53264;DHT22;39153;52.680;6.172;2022-07-06T10:41:55;20.50;99.90
53264;DHT22;39153;52.680;6.172;2022-07-06T10:44:26;20.60;99.90
53264;DHT22;39153;52.680;6.172;2022-07-06T10:46:58;20.90;99.90
53264;DHT22;39153;52.680;6.172;2022-07-06T10:49:26;20.50;99.30
53264;DHT22;39153;52.680;6.172;2022-07-06T10:51:52;20.60;99.80
53264;DHT22;39153;52.680;6.172;2022-07-06T10:54:19;20.50;99.20
53264;DHT22;39153;52.680;6.172;2022-07-06T10:56:47;20.60;99.60
53264;DHT22;39153;52.680;6.172;2022-07-06T10:59:21;20.80;99.00
53264;DHT22;39153;52.680;6.172;2022-07-06T11:02:13;21.00;98.00
53264;DHT22;39153;52.680;6.172;2022-07-06T11:04:40;20.70;97.60
53264;DHT22;39153;52.680;6.172;2022-07-06T11:07:14;20.70;99.40
53264;DHT22;39153;52.680;6.172;2022-07-06T11:09:41;20.60;99.80
53264;DHT22;39153;52.680;6.172;2022-07-06T11:12:20;20.60;99.30
53264;DHT22;39153;52.680;6.172;2022-07-06T11:14:51;20.70;99.90
53264;DHT22;39153;52.680;6.172;2022-07-06T11:17:17;21.00;99.10
53264;DHT22;39153;52.680;6.172;2022-07-06T11:22:18;21.00;98.80
53264;DHT22;39153;52.680;6.172;2022-07-06T11:24:45;21.50;98.60
53264;DHT22;39153;52.680;6.172;2022-07-06T11:27:12;21.20;98.00
53264;DHT22;39153;52.680;6.172;2022-07-06T11:29:38;21.30;97.70
53264;DHT22;39153;52.680;6.172;2022-07-06T11:32:06;21.40;97.60
53264;DHT22;39153;52.680;6.172;2022-07-06T11:34:37;21.50;97.00
53264;DHT22;39153;52.680;6.172;2022-07-06T11:37:15;21.50;97.30
53264;DHT22;39153;52.680;6.172;2022-07-06T11:39:42;21.60;97.10
53264;DHT22;39153;52.680;6.172;2022-07-06T11:42:09;21.60;96.80
53264;DHT22;39153;52.680;6.172;2022-07-06T11:44:36;22.00;96.20
53264;DHT22;39153;52.680;6.172;2022-07-06T11:47:03;21.80;94.90
53264;DHT22;39153;52.680;6.172;2022-07-06T11:49:31;22.00;95.00
53264;DHT22;39153;52.680;6.172;2022-07-06T11:51:57;22.10;95.00
53264;DHT22;39153;52.680;6.172;2022-07-06T11:54:24;22.30;96.00
53264;DHT22;39153;52.680;6.172;2022-07-06T11:56:58;22.10;95.40
53264;DHT22;39153;52.680;6.172;2022-07-06T11:59:33;22.50;95.60
53264;DHT22;39153;52.680;6.172;2022-07-06T12:02:09;22.30;95.30
53264;DHT22;39153;52.680;6.172;2022-07-06T12:04:42;22.20;95.00
53264;DHT22;39153;52.680;6.172;2022-07-06T12:07:16;22.40;95.60
53264;DHT22;39153;52.680;6.172;2022-07-06T12:09:44;22.80;96.10
53264;DHT22;39153;52.680;6.172;2022-07-06T12:12:11;22.90;94.10
53264;DHT22;39153;52.680;6.172;2022-07-06T12:14:38;23.20;95.80
53264;DHT22;39153;52.680;6.172;2022-07-06T12:17:12;22.50;95.70
53264;DHT22;39153;52.680;6.172;2022-07-06T12:19:39;22.10;95.10
53264;DHT22;39153;52.680;6.172;2022-07-06T12:22:06;22.40;95.90
53264;DHT22;39153;52.680;6.172;2022-07-06T12:24:33;22.40;95.90
53264;DHT22;39153;52.680;6.172;2022-07-06T12:27:19;22.50;95.10
53264;DHT22;39153;52.680;6.172;2022-07-06T12:29:47;21.90;94.10
53264;DHT22;39153;52.680;6.172;2022-07-06T12:32:17;22.40;95.70
53264;DHT22;39153;52.680;6.172;2022-07-06T12:34:43;22.90;95.50
53264;DHT22;39153;52.680;6.172;2022-07-06T12:37:10;22.80;95.50
53264;DHT22;39153;52.680;6.172;2022-07-06T12:39:43;22.80;95.50
53264;DHT22;39153;52.680;6.172;2022-07-06T12:42:10;22.70;94.10
53264;DHT22;39153;52.680;6.172;2022-07-06T12:44:44;23.00;94.30
53264;DHT22;39153;52.680;6.172;2022-07-06T12:47:10;23.40;93.40
53264;DHT22;39153;52.680;6.172;2022-07-06T12:49:38;23.50;92.40
53264;DHT22;39153;52.680;6.172;2022-07-06T12:52:14;23.40;92.70
53264;DHT22;39153;52.680;6.172;2022-07-06T12:57:14;22.70;93.30
53264;DHT22;39153;52.680;6.172;2022-07-06T12:59:42;23.00;93.10
53264;DHT22;39153;52.680;6.172;2022-07-06T13:05:08;22.80;91.60
53264;DHT22;39153;52.680;6.172;2022-07-06T13:07:43;22.90;92.30
53264;DHT22;39153;52.680;6.172;2022-07-06T13:10:10;22.80;91.30
53264;DHT22;39153;52.680;6.172;2022-07-06T13:12:38;22.90;90.80
53264;DHT22;39153;52.680;6.172;2022-07-06T13:15:05;23.20;91.70
53264;DHT22;39153;52.680;6.172;2022-07-06T13:17:31;23.50;90.30
53264;DHT22;39153;52.680;6.172;2022-07-06T13:19:56;23.10;91.00
53264;DHT22;39153;52.680;6.172;2022-07-06T13:22:22;23.50;90.70
53264;DHT22;39153;52.680;6.172;2022-07-06T13:24:47;23.80;90.30
53264;DHT22;39153;52.680;6.172;2022-07-06T13:27:13;23.70;89.20
53264;DHT22;39153;52.680;6.172;2022-07-06T13:29:39;23.90;90.40
53264;DHT22;39153;52.680;6.172;2022-07-06T13:32:05;24.00;90.40
53264;DHT22;39153;52.680;6.172;2022-07-06T13:34:32;23.80;90.60
53264;DHT22;39153;52.680;6.172;2022-07-06T13:36:57;23.50;89.90
53264;DHT22;39153;52.680;6.172;2022-07-06T13:39:23;23.10;89.50
53264;DHT22;39153;52.680;6.172;2022-07-06T13:41:49;22.90;90.20
53264;DHT22;39153;52.680;6.172;2022-07-06T13:44:15;22.80;90.10
53264;DHT22;39153;52.680;6.172;2022-07-06T13:46:41;22.40;90.90
53264;DHT22;39153;52.680;6.172;2022-07-06T13:49:10;21.90;91.10
53264;DHT22;39153;52.680;6.172;2022-07-06T13:51:36;21.80;91.60
53264;DHT22;39153;52.680;6.172;2022-07-06T13:54:02;21.90;92.00
53264;DHT22;39153;52.680;6.172;2022-07-06T13:56:28;21.90;92.20
53264;DHT22;39153;52.680;6.172;2022-07-06T13:58:54;21.90;91.50
53264;DHT22;39153;52.680;6.172;2022-07-06T14:01:21;21.80;92.20
53264;DHT22;39153;52.680;6.172;2022-07-06T14:03:47;21.70;92.20
53264;DHT22;39153;52.680;6.172;2022-07-06T14:06:13;21.70;92.70
53264;DHT22;39153;52.680;6.172;2022-07-06T14:08:40;21.60;92.50
53264;DHT22;39153;52.680;6.172;2022-07-06T14:11:07;21.50;92.90
53264;DHT22;39153;52.680;6.172;2022-07-06T14:13:34;21.50;93.50
53264;DHT22;39153;52.680;6.172;2022-07-06T14:16:01;21.40;93.00
53264;DHT22;39153;52.680;6.172;2022-07-06T14:18:27;21.30;93.20
53264;DHT22;39153;52.680;6.172;2022-07-06T14:20:53;21.10;93.40
53264;DHT22;39153;52.680;6.172;2022-07-06T14:23:20;21.10;93.40
53264;DHT22;39153;52.680;6.172;2022-07-06T14:25:47;21.10;93.50
53264;DHT22;39153;52.680;6.172;2022-07-06T14:28:14;21.10;93.70
53264;DHT22;39153;52.680;6.172;2022-07-06T14:30:41;20.90;93.60
53264;DHT22;39153;52.680;6.172;2022-07-06T14:33:08;20.90;93.70
53264;DHT22;39153;52.680;6.172;2022-07-06T14:35:46;20.90;94.40
53264;DHT22;39153;52.680;6.172;2022-07-06T14:38:13;21.00;94.70
53264;DHT22;39153;52.680;6.172;2022-07-06T14:40:39;21.00;95.20
53264;DHT22;39153;52.680;6.172;2022-07-06T14:43:05;21.10;95.10
53264;DHT22;39153;52.680;6.172;2022-07-06T14:45:30;21.10;95.20
53264;DHT22;39153;52.680;6.172;2022-07-06T14:47:56;20.90;95.00
53264;DHT22;39153;52.680;6.172;2022-07-06T14:50:22;20.80;95.00
53264;DHT22;39153;52.680;6.172;2022-07-06T14:52:52;20.80;95.80
53264;DHT22;39153;52.680;6.172;2022-07-06T14:55:19;20.70;95.30
53264;DHT22;39153;52.680;6.172;2022-07-06T14:57:45;20.50;95.20
53264;DHT22;39153;52.680;6.172;2022-07-06T15:00:12;20.80;95.60
53264;DHT22;39153;52.680;6.172;2022-07-06T15:02:38;21.10;96.00
53264;DHT22;39153;52.680;6.172;2022-07-06T15:05:04;21.10;95.80
53264;DHT22;39153;52.680;6.172;2022-07-06T15:07:30;20.90;95.50
53264;DHT22;39153;52.680;6.172;2022-07-06T15:09:56;20.70;95.70
53264;DHT22;39153;52.680;6.172;2022-07-06T15:12:22;20.70;96.20
53264;DHT22;39153;52.680;6.172;2022-07-06T15:14:48;20.80;96.50
53264;DHT22;39153;52.680;6.172;2022-07-06T15:17:13;20.80;97.00
53264;DHT22;39153;52.680;6.172;2022-07-06T15:19:39;20.80;96.50
53264;DHT22;39153;52.680;6.172;2022-07-06T15:22:06;20.60;96.00
53264;DHT22;39153;52.680;6.172;2022-07-06T15:24:32;20.50;96.90
53264;DHT22;39153;52.680;6.172;2022-07-06T15:26:57;20.10;98.80
53264;DHT22;39153;52.680;6.172;2022-07-06T15:29:23;19.80;99.50
53264;DHT22;39153;52.680;6.172;2022-07-06T15:31:50;19.50;99.90
53264;DHT22;39153;52.680;6.172;2022-07-06T15:34:15;19.50;99.90
53264;DHT22;39153;52.680;6.172;2022-07-06T15:36:41;19.40;99.90
53264;DHT22;39153;52.680;6.172;2022-07-06T15:39:07;19.20;99.90